sensor_id;sensor_type;location;lat;lon;timestamp;pressure;altitude;pressure_sealevel;temperature;humidity
51829;BME280;37881;48.024;8.774;2023-03-23T00:01:57;93437.53;;;8.45;100.00
51829;BME280;37881;48.024;8.774;2023-03-23T00:04:23;93435.44;;;8.26;100.00
51829;BME280;37881;48.024;8.774;2023-03-23T00:06:51;93435.63;;;8.38;100.00
51829;BME280;37881;48.024;8.774;2023-03-23T00:09:16;93434.16;;;8.34;100.00
51829;BME280;37881;48.024;8.774;2023-03-23T00:11:42;93436.78;;;8.14;100.00
51829;BME280;37881;48.024;8.774;2023-03-23T00:14:09;93437.72;;;8.00;100.00
51829;BME280;37881;48.024;8.774;2023-03-23T00:16:39;93420.91;;;8.05;100.00
51829;BME280;37881;48.024;8.774;2023-03-23T00:19:10;93428.94;;;8.16;100.00
51829;BME280;37881;48.024;8.774;2023-03-23T00:21:39;93426.03;;;8.27;100.00
51829;BME280;37881;48.024;8.774;2023-03-23T00:24:08;93429.81;;;8.36;100.00
51829;BME280;37881;48.024;8.774;2023-03-23T00:26:39;93428.19;;;8.43;100.00
51829;BME280;37881;48.024;8.774;2023-03-23T00:29:07;93423.91;;;8.42;100.00
51829;BME280;37881;48.024;8.774;2023-03-23T00:31:33;93426.47;;;7.94;100.00
51829;BME280;37881;48.024;8.774;2023-03-23T00:34:03;93427.00;;;8.13;100.00
51829;BME280;37881;48.024;8.774;2023-03-23T00:36:33;93423.81;;;8.18;100.00
51829;BME280;37881;48.024;8.774;2023-03-23T00:39:03;93420.78;;;8.12;100.00
51829;BME280;37881;48.024;8.774;2023-03-23T00:41:30;93409.75;;;8.19;100.00
51829;BME280;37881;48.024;8.774;2023-03-23T00:43:57;93408.47;;;8.28;100.00
51829;BME280;37881;48.024;8.774;2023-03-23T00:46:26;93413.63;;;8.22;100.00
51829;BME280;37881;48.024;8.774;2023-03-23T00:48:54;93418.28;;;8.25;100.00
51829;BME280;37881;48.024;8.774;2023-03-23T00:51:20;93411.16;;;8.31;100.00
51829;BME280;37881;48.024;8.774;2023-03-23T00:53:46;93412.13;;;8.17;100.00
51829;BME280;37881;48.024;8.774;2023-03-23T00:56:13;93414.09;;;8.17;100.00
51829;BME280;37881;48.024;8.774;2023-03-23T00:58:38;93406.31;;;8.15;100.00
51829;BME280;37881;48.024;8.774;2023-03-23T01:01:05;93404.44;;;8.09;100.00
51829;BME280;37881;48.024;8.774;2023-03-23T01:03:31;93399.78;;;8.06;100.00
51829;BME280;37881;48.024;8.774;2023-03-23T01:05:57;93401.28;;;8.10;100.00
51829;BME280;37881;48.024;8.774;2023-03-23T01:08:23;93393.13;;;8.07;100.00
51829;BME280;37881;48.024;8.774;2023-03-23T01:10:50;93399.22;;;8.18;100.00
51829;BME280;37881;48.024;8.774;2023-03-23T01:13:16;93386.91;;;8.33;100.00
51829;BME280;37881;48.024;8.774;2023-03-23T01:15:42;93387.16;;;8.43;100.00
51829;BME280;37881;48.024;8.774;2023-03-23T01:18:09;93385.69;;;8.34;100.00
51829;BME280;37881;48.024;8.774;2023-03-23T01:20:36;93393.44;;;8.39;100.00
51829;BME280;37881;48.024;8.774;2023-03-23T01:23:02;93395.72;;;8.45;100.00
51829;BME280;37881;48.024;8.774;2023-03-23T01:25:30;93390.16;;;8.52;100.00
51829;BME280;37881;48.024;8.774;2023-03-23T01:27:57;93381.09;;;8.55;100.00
51829;BME280;37881;48.024;8.774;2023-03-23T01:30:24;93384.91;;;8.61;100.00
51829;BME280;37881;48.024;8.774;2023-03-23T01:32:50;93380.28;;;8.58;100.00
51829;BME280;37881;48.024;8.774;2023-03-23T01:35:16;93386.88;;;8.60;100.00
51829;BME280;37881;48.024;8.774;2023-03-23T01:37:42;93384.09;;;8.64;100.00
51829;BME280;37881;48.024;8.774;2023-03-23T01:40:09;93379.03;;;8.63;100.00
51829;BME280;37881;48.024;8.774;2023-03-23T01:42:37;93385.88;;;8.51;100.00
51829;BME280;37881;48.024;8.774;2023-03-23T01:45:34;93376.78;;;8.30;100.00
51829;BME280;37881;48.024;8.774;2023-03-23T01:50:33;93385.84;;;7.96;100.00
51829;BME280;37881;48.024;8.774;2023-03-23T01:53:01;93386.75;;;8.17;100.00
51829;BME280;37881;48.024;8.774;2023-03-23T01:55:29;93387.03;;;8.23;100.00
51829;BME280;37881;48.024;8.774;2023-03-23T01:57:56;93389.94;;;8.12;100.00
51829;BME280;37881;48.024;8.774;2023-03-23T02:00:24;93396.63;;;7.80;100.00
51829;BME280;37881;48.024;8.774;2023-03-23T02:02:51;93390.66;;;7.89;100.00
51829;BME280;37881;48.024;8.774;2023-03-23T02:05:30;93382.16;;;8.10;100.00
51829;BME280;37881;48.024;8.774;2023-03-23T02:08:00;93380.47;;;8.20;100.00
51829;BME280;37881;48.024;8.774;2023-03-23T02:10:32;93376.44;;;8.28;100.00
51829;BME280;37881;48.024;8.774;2023-03-23T02:12:59;93376.44;;;8.28;100.00
51829;BME280;37881;48.024;8.774;2023-03-23T02:15:30;93379.53;;;8.30;100.00
51829;BME280;37881;48.024;8.774;2023-03-23T02:18:07;93383.50;;;8.26;100.00
51829;BME280;37881;48.024;8.774;2023-03-23T02:34:58;93371.53;;;8.16;100.00
51829;BME280;37881;48.024;8.774;2023-03-23T02:37:33;93367.72;;;8.10;100.00
51829;BME280;37881;48.024;8.774;2023-03-23T02:40:25;93358.19;;;8.22;100.00
51829;BME280;37881;48.024;8.774;2023-03-23T02:42:55;93366.34;;;8.25;100.00
51829;BME280;37881;48.024;8.774;2023-03-23T02:45:24;93349.13;;;8.25;100.00
51829;BME280;37881;48.024;8.774;2023-03-23T02:47:52;93342.13;;;8.24;100.00
51829;BME280;37881;48.024;8.774;2023-03-23T02:50:20;93343.66;;;8.25;100.00
51829;BME280;37881;48.024;8.774;2023-03-23T02:52:48;93342.84;;;8.28;100.00
51829;BME280;37881;48.024;8.774;2023-03-23T02:55:17;93321.28;;;8.33;100.00
51829;BME280;37881;48.024;8.774;2023-03-23T02:57:45;93315.69;;;8.40;100.00
51829;BME280;37881;48.024;8.774;2023-03-23T03:00:14;93309.66;;;8.53;100.00
51829;BME280;37881;48.024;8.774;2023-03-23T03:02:43;93321.19;;;8.64;100.00
51829;BME280;37881;48.024;8.774;2023-03-23T03:05:38;93340.56;;;8.73;100.00
51829;BME280;37881;48.024;8.774;2023-03-23T03:08:10;93337.13;;;8.89;100.00
51829;BME280;37881;48.024;8.774;2023-03-23T03:10:51;93323.28;;;9.00;100.00
51829;BME280;37881;48.024;8.774;2023-03-23T03:13:46;93326.03;;;9.00;100.00
51829;BME280;37881;48.024;8.774;2023-03-23T03:16:30;93323.00;;;8.71;100.00
51829;BME280;37881;48.024;8.774;2023-03-23T03:21:45;93321.59;;;8.63;100.00
51829;BME280;37881;48.024;8.774;2023-03-23T03:24:15;93331.13;;;8.54;100.00
51829;BME280;37881;48.024;8.774;2023-03-23T03:26:45;93325.03;;;8.67;100.00
51829;BME280;37881;48.024;8.774;2023-03-23T03:29:18;93329.19;;;8.75;100.00
51829;BME280;37881;48.024;8.774;2023-03-23T03:31:45;93320.03;;;8.85;100.00
51829;BME280;37881;48.024;8.774;2023-03-23T03:34:14;93321.06;;;8.91;100.00
51829;BME280;37881;48.024;8.774;2023-03-23T03:36:44;93324.19;;;8.93;100.00
51829;BME280;37881;48.024;8.774;2023-03-23T03:39:12;93322.63;;;8.92;100.00
51829;BME280;37881;48.024;8.774;2023-03-23T03:41:40;93328.06;;;8.96;100.00
51829;BME280;37881;48.024;8.774;2023-03-23T03:44:07;93325.97;;;9.04;100.00
51829;BME280;37881;48.024;8.774;2023-03-23T03:46:34;93330.44;;;9.14;100.00
51829;BME280;37881;48.024;8.774;2023-03-23T03:49:02;93320.63;;;9.16;100.00
51829;BME280;37881;48.024;8.774;2023-03-23T03:51:29;93317.06;;;9.19;100.00
51829;BME280;37881;48.024;8.774;2023-03-23T03:53:55;93315.09;;;9.20;100.00
51829;BME280;37881;48.024;8.774;2023-03-23T03:56:21;93319.41;;;9.17;100.00
51829;BME280;37881;48.024;8.774;2023-03-23T03:58:48;93316.97;;;9.23;100.00
51829;BME280;37881;48.024;8.774;2023-03-23T04:01:15;93320.50;;;9.24;100.00
51829;BME280;37881;48.024;8.774;2023-03-23T04:03:42;93313.03;;;9.24;100.00
51829;BME280;37881;48.024;8.774;2023-03-23T04:06:08;93310.25;;;9.28;100.00
51829;BME280;37881;48.024;8.774;2023-03-23T04:08:35;93314.84;;;9.31;100.00
51829;BME280;37881;48.024;8.774;2023-03-23T04:11:03;93316.13;;;9.26;100.00
51829;BME280;37881;48.024;8.774;2023-03-23T04:13:30;93313.47;;;9.23;100.00
51829;BME280;37881;48.024;8.774;2023-03-23T04:15:55;93316.06;;;9.10;100.00
51829;BME280;37881;48.024;8.774;2023-03-23T04:18:21;93308.94;;;8.92;100.00
51829;BME280;37881;48.024;8.774;2023-03-23T04:20:48;93295.84;;;8.84;100.00
51829;BME280;37881;48.024;8.774;2023-03-23T04:23:16;93304.66;;;8.91;100.00
51829;BME280;37881;48.024;8.774;2023-03-23T04:25:51;93310.69;;;8.83;100.00
51829;BME280;37881;48.024;8.774;2023-03-23T04:28:19;93312.66;;;8.82;100.00
51829;BME280;37881;48.024;8.774;2023-03-23T04:30:50;93309.00;;;8.89;100.00
51829;BME280;37881;48.024;8.774;2023-03-23T04:33:24;93304.88;;;8.80;100.00
51829;BME280;37881;48.024;8.774;2023-03-23T04:35:52;93305.72;;;8.77;100.00
51829;BME280;37881;48.024;8.774;2023-03-23T04:38:18;93312.72;;;8.78;100.00
51829;BME280;37881;48.024;8.774;2023-03-23T04:40:46;93308.31;;;8.85;100.00
51829;BME280;37881;48.024;8.774;2023-03-23T04:43:12;93307.47;;;8.88;100.00
51829;BME280;37881;48.024;8.774;2023-03-23T04:45:38;93302.00;;;8.88;100.00
51829;BME280;37881;48.024;8.774;2023-03-23T04:48:07;93295.34;;;8.89;100.00
51829;BME280;37881;48.024;8.774;2023-03-23T04:50:35;93305.09;;;8.90;100.00
51829;BME280;37881;48.024;8.774;2023-03-23T04:53:02;93292.88;;;8.94;100.00
51829;BME280;37881;48.024;8.774;2023-03-23T04:55:31;93301.50;;;8.93;100.00
51829;BME280;37881;48.024;8.774;2023-03-23T04:57:57;93298.28;;;8.98;100.00
51829;BME280;37881;48.024;8.774;2023-03-23T05:00:25;93307.97;;;9.03;100.00
51829;BME280;37881;48.024;8.774;2023-03-23T05:02:51;93309.53;;;9.04;100.00
51829;BME280;37881;48.024;8.774;2023-03-23T05:05:18;93310.00;;;8.98;100.00
51829;BME280;37881;48.024;8.774;2023-03-23T05:07:44;93311.97;;;8.98;100.00
51829;BME280;37881;48.024;8.774;2023-03-23T05:10:11;93317.03;;;8.99;100.00
51829;BME280;37881;48.024;8.774;2023-03-23T05:12:38;93321.72;;;8.99;100.00
51829;BME280;37881;48.024;8.774;2023-03-23T05:15:04;93317.75;;;9.04;100.00
51829;BME280;37881;48.024;8.774;2023-03-23T05:17:31;93324.41;;;9.03;100.00
51829;BME280;37881;48.024;8.774;2023-03-23T05:19:58;93325.97;;;9.04;100.00
51829;BME280;37881;48.024;8.774;2023-03-23T05:22:27;93329.88;;;9.03;100.00
51829;BME280;37881;48.024;8.774;2023-03-23T05:24:53;93330.78;;;8.96;100.00
51829;BME280;37881;48.024;8.774;2023-03-23T05:27:19;93328.06;;;8.96;100.00
51829;BME280;37881;48.024;8.774;2023-03-23T05:29:45;93322.34;;;8.87;100.00
51829;BME280;37881;48.024;8.774;2023-03-23T05:32:16;93316.41;;;8.92;100.00
51829;BME280;37881;48.024;8.774;2023-03-23T05:34:42;93309.78;;;8.89;100.00
51829;BME280;37881;48.024;8.774;2023-03-23T05:37:09;93311.22;;;8.97;100.00
51829;BME280;37881;48.024;8.774;2023-03-23T05:39:36;93309.44;;;9.07;100.00
51829;BME280;37881;48.024;8.774;2023-03-23T05:42:02;93314.78;;;9.14;100.00
51829;BME280;37881;48.024;8.774;2023-03-23T05:44:28;93311.19;;;9.17;100.00
51829;BME280;37881;48.024;8.774;2023-03-23T05:46:55;93309.59;;;9.20;100.00
51829;BME280;37881;48.024;8.774;2023-03-23T05:49:20;93318.94;;;9.23;100.00
51829;BME280;37881;48.024;8.774;2023-03-23T05:51:46;93315.00;;;9.24;100.00
51829;BME280;37881;48.024;8.774;2023-03-23T05:54:13;93323.56;;;9.26;100.00
51829;BME280;37881;48.024;8.774;2023-03-23T05:56:40;93315.63;;;9.31;100.00
51829;BME280;37881;48.024;8.774;2023-03-23T05:59:06;93323.06;;;9.31;100.00
51829;BME280;37881;48.024;8.774;2023-03-23T06:01:32;93326.16;;;9.33;100.00
51829;BME280;37881;48.024;8.774;2023-03-23T06:03:58;93336.63;;;9.38;100.00
51829;BME280;37881;48.024;8.774;2023-03-23T06:06:28;93334.25;;;9.40;100.00
51829;BME280;37881;48.024;8.774;2023-03-23T06:08:58;93339.84;;;9.53;100.00
51829;BME280;37881;48.024;8.774;2023-03-23T06:11:24;93342.50;;;9.56;100.00
51829;BME280;37881;48.024;8.774;2023-03-23T06:13:52;93338.50;;;9.61;100.00
51829;BME280;37881;48.024;8.774;2023-03-23T06:16:18;93338.00;;;9.66;100.00
51829;BME280;37881;48.024;8.774;2023-03-23T06:18:44;93346.41;;;9.75;100.00
51829;BME280;37881;48.024;8.774;2023-03-23T06:21:11;93352.69;;;9.76;100.00
51829;BME280;37881;48.024;8.774;2023-03-23T06:23:37;93349.44;;;9.81;100.00
51829;BME280;37881;48.024;8.774;2023-03-23T06:26:06;93355.31;;;9.79;100.00
51829;BME280;37881;48.024;8.774;2023-03-23T06:28:33;93361.16;;;9.82;100.00
51829;BME280;37881;48.024;8.774;2023-03-23T06:31:02;93353.63;;;9.86;99.80
51829;BME280;37881;48.024;8.774;2023-03-23T06:33:32;93366.44;;;9.92;98.97
51829;BME280;37881;48.024;8.774;2023-03-23T06:35:57;93364.06;;;10.11;98.13
51829;BME280;37881;48.024;8.774;2023-03-23T06:38:24;93378.25;;;10.42;96.73
51829;BME280;37881;48.024;8.774;2023-03-23T06:40:54;93365.94;;;10.67;95.07
51829;BME280;37881;48.024;8.774;2023-03-23T06:43:21;93372.94;;;10.84;92.35
51829;BME280;37881;48.024;8.774;2023-03-23T06:45:46;93365.50;;;11.14;91.18
51829;BME280;37881;48.024;8.774;2023-03-23T06:48:12;93362.81;;;11.27;89.52
51829;BME280;37881;48.024;8.774;2023-03-23T06:50:38;93374.13;;;11.29;87.94
51829;BME280;37881;48.024;8.774;2023-03-23T06:53:07;93371.22;;;11.36;88.28
51829;BME280;37881;48.024;8.774;2023-03-23T06:55:32;93369.22;;;11.36;88.04
51829;BME280;37881;48.024;8.774;2023-03-23T06:57:58;93368.63;;;11.29;87.84
51829;BME280;37881;48.024;8.774;2023-03-23T07:00:27;93369.16;;;11.53;87.26
51829;BME280;37881;48.024;8.774;2023-03-23T07:02:52;93358.75;;;11.60;86.73
51829;BME280;37881;48.024;8.774;2023-03-23T07:05:18;93364.72;;;11.72;86.80
51829;BME280;37881;48.024;8.774;2023-03-23T07:07:44;93370.31;;;12.10;83.57
51829;BME280;37881;48.024;8.774;2023-03-23T07:10:10;93355.47;;;12.21;81.70
51829;BME280;37881;48.024;8.774;2023-03-23T07:12:37;93366.16;;;12.44;79.78
51829;BME280;37881;48.024;8.774;2023-03-23T07:15:03;93360.41;;;12.51;79.32
51829;BME280;37881;48.024;8.774;2023-03-23T07:17:29;93379.00;;;12.73;77.62
51829;BME280;37881;48.024;8.774;2023-03-23T07:19:55;93369.66;;;12.57;78.56
51829;BME280;37881;48.024;8.774;2023-03-23T07:22:21;93376.16;;;12.64;77.63
51829;BME280;37881;48.024;8.774;2023-03-23T07:24:47;93370.94;;;12.91;76.87
51829;BME280;37881;48.024;8.774;2023-03-23T07:27:13;93377.63;;;13.03;75.60
51829;BME280;37881;48.024;8.774;2023-03-23T07:29:39;93383.56;;;13.14;75.56
51829;BME280;37881;48.024;8.774;2023-03-23T07:32:05;93381.69;;;13.11;74.41
51829;BME280;37881;48.024;8.774;2023-03-23T07:34:32;93388.16;;;13.17;73.62
51829;BME280;37881;48.024;8.774;2023-03-23T07:36:58;93387.59;;;13.23;73.58
51829;BME280;37881;48.024;8.774;2023-03-23T07:39:24;93388.81;;;13.22;72.43
51829;BME280;37881;48.024;8.774;2023-03-23T07:41:50;93387.94;;;12.64;74.01
51829;BME280;37881;48.024;8.774;2023-03-23T07:44:16;93377.13;;;12.31;76.78
51829;BME280;37881;48.024;8.774;2023-03-23T07:46:42;93376.81;;;12.42;78.24
51829;BME280;37881;48.024;8.774;2023-03-23T07:49:09;93377.47;;;12.59;77.64
51829;BME280;37881;48.024;8.774;2023-03-23T07:51:35;93371.84;;;12.63;76.04
51829;BME280;37881;48.024;8.774;2023-03-23T07:54:04;93366.31;;;12.75;75.32
51829;BME280;37881;48.024;8.774;2023-03-23T07:56:31;93367.69;;;13.06;75.02
51829;BME280;37881;48.024;8.774;2023-03-23T07:58:56;93367.03;;;13.49;73.57
51829;BME280;37881;48.024;8.774;2023-03-23T08:01:22;93374.22;;;13.47;72.92
51829;BME280;37881;48.024;8.774;2023-03-23T08:03:49;93376.91;;;13.82;72.12
51829;BME280;37881;48.024;8.774;2023-03-23T08:06:15;93380.91;;;13.81;71.19
51829;BME280;37881;48.024;8.774;2023-03-23T08:08:41;93387.06;;;13.85;70.67
51829;BME280;37881;48.024;8.774;2023-03-23T08:11:07;93380.81;;;13.49;69.87
51829;BME280;37881;48.024;8.774;2023-03-23T08:13:33;93380.25;;;14.30;68.78
51829;BME280;37881;48.024;8.774;2023-03-23T08:15:59;93390.44;;;14.73;64.23
51829;BME280;37881;48.024;8.774;2023-03-23T08:18:30;93398.56;;;14.46;63.89
51829;BME280;37881;48.024;8.774;2023-03-23T08:20:56;93398.63;;;14.24;64.38
51829;BME280;37881;48.024;8.774;2023-03-23T08:23:21;93396.00;;;14.20;64.60
51829;BME280;37881;48.024;8.774;2023-03-23T08:25:48;93405.34;;;14.54;62.66
51829;BME280;37881;48.024;8.774;2023-03-23T08:28:14;93399.22;;;14.50;62.99
51829;BME280;37881;48.024;8.774;2023-03-23T08:30:40;93392.34;;;14.23;63.66
51829;BME280;37881;48.024;8.774;2023-03-23T08:33:06;93402.38;;;14.70;62.57
51829;BME280;37881;48.024;8.774;2023-03-23T08:35:34;93409.00;;;14.73;63.02
51829;BME280;37881;48.024;8.774;2023-03-23T08:37:59;93403.56;;;15.01;61.80
51829;BME280;37881;48.024;8.774;2023-03-23T08:40:25;93400.09;;;15.37;60.85
51829;BME280;37881;48.024;8.774;2023-03-23T08:42:52;93407.91;;;15.38;60.26
51829;BME280;37881;48.024;8.774;2023-03-23T08:45:20;93398.88;;;15.93;59.13
51829;BME280;37881;48.024;8.774;2023-03-23T08:47:47;93412.63;;;16.49;56.94
51829;BME280;37881;48.024;8.774;2023-03-23T08:50:20;93411.47;;;16.22;56.02
51829;BME280;37881;48.024;8.774;2023-03-23T08:52:46;93414.28;;;16.65;56.79
51829;BME280;37881;48.024;8.774;2023-03-23T08:55:12;93415.56;;;16.97;55.19
51829;BME280;37881;48.024;8.774;2023-03-23T08:57:38;93418.44;;;15.81;56.87
51829;BME280;37881;48.024;8.774;2023-03-23T09:00:07;93428.88;;;15.86;59.28
51829;BME280;37881;48.024;8.774;2023-03-23T09:02:48;93424.44;;;16.58;56.34
51829;BME280;37881;48.024;8.774;2023-03-23T09:05:15;93419.31;;;16.14;57.09
51829;BME280;37881;48.024;8.774;2023-03-23T09:07:44;93421.69;;;16.49;57.43
51829;BME280;37881;48.024;8.774;2023-03-23T09:10:11;93429.94;;;16.86;56.68
51829;BME280;37881;48.024;8.774;2023-03-23T09:12:39;93442.59;;;16.69;55.01
51829;BME280;37881;48.024;8.774;2023-03-23T09:15:07;93444.06;;;16.00;57.99
51829;BME280;37881;48.024;8.774;2023-03-23T09:17:52;93445.00;;;15.87;59.10
51829;BME280;37881;48.024;8.774;2023-03-23T09:20:22;93443.31;;;15.81;60.56
51829;BME280;37881;48.024;8.774;2023-03-23T09:22:50;93440.09;;;16.01;62.47
51829;BME280;37881;48.024;8.774;2023-03-23T09:25:18;93435.41;;;16.44;61.53
51829;BME280;37881;48.024;8.774;2023-03-23T09:27:49;93438.06;;;16.90;58.43
51829;BME280;37881;48.024;8.774;2023-03-23T09:30:19;93439.44;;;16.33;59.86
51829;BME280;37881;48.024;8.774;2023-03-23T09:32:45;93436.19;;;16.96;57.96
51829;BME280;37881;48.024;8.774;2023-03-23T09:35:14;93440.59;;;20.77;50.11
51829;BME280;37881;48.024;8.774;2023-03-23T09:37:43;93441.75;;;20.96;45.72
51829;BME280;37881;48.024;8.774;2023-03-23T09:40:13;93442.88;;;18.10;50.47
51829;BME280;37881;48.024;8.774;2023-03-23T09:42:43;93448.94;;;17.03;54.52
51829;BME280;37881;48.024;8.774;2023-03-23T09:48:26;93444.84;;;16.09;58.09
51829;BME280;37881;48.024;8.774;2023-03-23T09:51:08;93448.72;;;16.12;57.93
51829;BME280;37881;48.024;8.774;2023-03-23T09:53:40;93446.16;;;16.60;56.67
51829;BME280;37881;48.024;8.774;2023-03-23T09:56:14;93451.81;;;16.84;56.05
51829;BME280;37881;48.024;8.774;2023-03-23T09:59:00;93446.03;;;17.30;55.09
51829;BME280;37881;48.024;8.774;2023-03-23T10:01:35;93450.38;;;16.80;55.43
51829;BME280;37881;48.024;8.774;2023-03-23T10:04:34;93449.56;;;16.46;56.21
51829;BME280;37881;48.024;8.774;2023-03-23T10:07:29;93450.88;;;16.08;58.99
51829;BME280;37881;48.024;8.774;2023-03-23T10:09:59;93453.28;;;15.69;60.28
51829;BME280;37881;48.024;8.774;2023-03-23T10:12:40;93454.88;;;15.20;64.77
51829;BME280;37881;48.024;8.774;2023-03-23T10:15:14;93458.63;;;14.95;65.65
51829;BME280;37881;48.024;8.774;2023-03-23T10:17:56;93459.66;;;15.29;64.28
51829;BME280;37881;48.024;8.774;2023-03-23T10:20:45;93470.94;;;15.44;63.95
51829;BME280;37881;48.024;8.774;2023-03-23T10:28:43;93471.22;;;15.36;63.15
51829;BME280;37881;48.024;8.774;2023-03-23T10:31:31;93471.75;;;15.81;63.12
51829;BME280;37881;48.024;8.774;2023-03-23T10:34:03;93474.53;;;15.81;62.13
51829;BME280;37881;48.024;8.774;2023-03-23T10:37:03;93467.91;;;15.97;60.61
51829;BME280;37881;48.024;8.774;2023-03-23T10:40:11;93476.16;;;15.60;60.81
51829;BME280;37881;48.024;8.774;2023-03-23T10:42:36;93473.25;;;15.05;62.91
51829;BME280;37881;48.024;8.774;2023-03-23T10:45:22;93479.41;;;15.09;62.94
51829;BME280;37881;48.024;8.774;2023-03-23T10:47:56;93481.28;;;15.21;63.65
51829;BME280;37881;48.024;8.774;2023-03-23T10:50:30;93473.66;;;15.25;63.22
51829;BME280;37881;48.024;8.774;2023-03-23T10:52:58;93483.81;;;15.37;63.13
51829;BME280;37881;48.024;8.774;2023-03-23T10:55:38;93485.47;;;15.35;61.05
51829;BME280;37881;48.024;8.774;2023-03-23T10:58:08;93477.38;;;15.59;63.24
51829;BME280;37881;48.024;8.774;2023-03-23T11:00:41;93470.38;;;15.76;62.08
51829;BME280;37881;48.024;8.774;2023-03-23T11:06:07;93466.19;;;15.63;60.86
51829;BME280;37881;48.024;8.774;2023-03-23T11:08:37;93464.06;;;15.85;60.24
51829;BME280;37881;48.024;8.774;2023-03-23T11:11:25;93463.44;;;16.00;59.50
51829;BME280;37881;48.024;8.774;2023-03-23T11:14:11;93446.22;;;16.23;58.70
51829;BME280;37881;48.024;8.774;2023-03-23T11:16:44;93461.81;;;16.72;57.53
51829;BME280;37881;48.024;8.774;2023-03-23T11:19:15;93455.00;;;17.25;54.70
51829;BME280;37881;48.024;8.774;2023-03-23T11:21:47;93459.50;;;17.23;53.42
51829;BME280;37881;48.024;8.774;2023-03-23T11:24:13;93456.78;;;17.04;53.40
51829;BME280;37881;48.024;8.774;2023-03-23T11:26:39;93454.41;;;16.78;53.64
51829;BME280;37881;48.024;8.774;2023-03-23T11:29:12;93454.28;;;16.82;54.02
51829;BME280;37881;48.024;8.774;2023-03-23T11:31:41;93447.09;;;17.00;54.11
51829;BME280;37881;48.024;8.774;2023-03-23T11:34:14;93446.97;;;17.27;52.29
51829;BME280;37881;48.024;8.774;2023-03-23T11:36:46;93439.59;;;17.24;52.33
51829;BME280;37881;48.024;8.774;2023-03-23T11:39:22;93439.78;;;16.87;53.10
51829;BME280;37881;48.024;8.774;2023-03-23T11:41:48;93444.81;;;16.46;54.07
51829;BME280;37881;48.024;8.774;2023-03-23T11:44:14;93449.41;;;17.34;52.64
51829;BME280;37881;48.024;8.774;2023-03-23T11:46:58;93444.13;;;17.12;52.72
51829;BME280;37881;48.024;8.774;2023-03-23T11:49:38;93439.38;;;17.04;52.73
51829;BME280;37881;48.024;8.774;2023-03-23T11:52:23;93441.78;;;16.87;54.23
51829;BME280;37881;48.024;8.774;2023-03-23T11:55:00;93427.63;;;17.42;52.33
51829;BME280;37881;48.024;8.774;2023-03-23T11:57:28;93434.25;;;17.45;52.42
51829;BME280;37881;48.024;8.774;2023-03-23T11:59:56;93425.63;;;17.43;51.52
51829;BME280;37881;48.024;8.774;2023-03-23T12:02:42;93439.56;;;17.00;52.93
51829;BME280;37881;48.024;8.774;2023-03-23T12:10:30;93425.88;;;16.45;54.41
51829;BME280;37881;48.024;8.774;2023-03-23T12:26:16;93436.13;;;16.63;52.74
51829;BME280;37881;48.024;8.774;2023-03-23T12:31:52;93426.38;;;17.19;53.09
51829;BME280;37881;48.024;8.774;2023-03-23T12:40:03;93415.00;;;16.74;52.96
51829;BME280;37881;48.024;8.774;2023-03-23T12:42:54;93421.00;;;16.21;54.07
51829;BME280;37881;48.024;8.774;2023-03-23T12:48:34;93418.53;;;16.75;52.67
51829;BME280;37881;48.024;8.774;2023-03-23T12:51:12;93416.16;;;16.58;53.26
51829;BME280;37881;48.024;8.774;2023-03-23T12:56:33;93420.78;;;16.43;52.32
51829;BME280;37881;48.024;8.774;2023-03-23T12:59:06;93413.00;;;16.23;53.04
51829;BME280;37881;48.024;8.774;2023-03-23T13:01:42;93415.38;;;15.88;52.74
51829;BME280;37881;48.024;8.774;2023-03-23T13:04:20;93424.41;;;16.16;53.72
51829;BME280;37881;48.024;8.774;2023-03-23T13:06:48;93419.50;;;15.92;58.21
51829;BME280;37881;48.024;8.774;2023-03-23T13:11:49;93423.94;;;15.99;60.19
51829;BME280;37881;48.024;8.774;2023-03-23T13:14:25;93420.78;;;16.52;57.62
51829;BME280;37881;48.024;8.774;2023-03-23T13:19:25;93416.22;;;16.31;59.18
51829;BME280;37881;48.024;8.774;2023-03-23T13:22:02;93418.41;;;16.08;55.45
51829;BME280;37881;48.024;8.774;2023-03-23T13:24:33;93410.56;;;15.70;57.02
51829;BME280;37881;48.024;8.774;2023-03-23T13:27:00;93405.34;;;15.63;56.88
51829;BME280;37881;48.024;8.774;2023-03-23T13:29:26;93405.94;;;15.67;57.08
51829;BME280;37881;48.024;8.774;2023-03-23T13:32:05;93416.47;;;15.04;57.86
51829;BME280;37881;48.024;8.774;2023-03-23T13:34:32;93413.59;;;15.35;56.47
51829;BME280;37881;48.024;8.774;2023-03-23T13:37:00;93411.91;;;15.47;57.07
51829;BME280;37881;48.024;8.774;2023-03-23T13:40:13;93420.78;;;15.14;58.16
51829;BME280;37881;48.024;8.774;2023-03-23T13:42:54;93417.66;;;14.93;59.73
51829;BME280;37881;48.024;8.774;2023-03-23T13:45:24;93420.25;;;14.88;60.54
51829;BME280;37881;48.024;8.774;2023-03-23T13:48:17;93426.66;;;14.75;61.07
51829;BME280;37881;48.024;8.774;2023-03-23T13:51:00;93408.66;;;14.62;60.21
51829;BME280;37881;48.024;8.774;2023-03-23T13:53:27;93406.06;;;14.67;62.43
51829;BME280;37881;48.024;8.774;2023-03-23T13:56:35;93405.63;;;14.78;62.45
51829;BME280;37881;48.024;8.774;2023-03-23T14:01:38;93400.81;;;15.10;60.34
51829;BME280;37881;48.024;8.774;2023-03-23T14:04:12;93398.31;;;14.93;61.73
51829;BME280;37881;48.024;8.774;2023-03-23T14:06:40;93393.44;;;15.07;60.45
51829;BME280;37881;48.024;8.774;2023-03-23T14:09:12;93398.69;;;15.14;61.22
51829;BME280;37881;48.024;8.774;2023-03-23T14:11:58;93392.81;;;15.03;60.87
51829;BME280;37881;48.024;8.774;2023-03-23T14:14:28;93395.91;;;15.14;60.45
51829;BME280;37881;48.024;8.774;2023-03-23T14:17:11;93388.28;;;15.27;60.22
51829;BME280;37881;48.024;8.774;2023-03-23T14:19:39;93399.44;;;15.14;61.30
51829;BME280;37881;48.024;8.774;2023-03-23T14:22:17;93380.59;;;15.31;60.09
51829;BME280;37881;48.024;8.774;2023-03-23T14:24:43;93382.50;;;14.94;60.46
51829;BME280;37881;48.024;8.774;2023-03-23T14:27:18;93384.38;;;15.06;60.33
51829;BME280;37881;48.024;8.774;2023-03-23T14:29:44;93379.50;;;15.20;60.28